Terminal Aerodrome Forecast
Issued by NWS Tuscon, AZ

Home | Current Version | Previous Version | Text Only | Print | Product List | Glossary On
Versions: 1 2 3 4 5 6 7 8 9 10 11 12 13 14
204
FTUS45 KTWC 240520
TAFTUS
TAF
KTUS 240520Z 2406/2506 27012G20KT P6SM SCT120 BKN250
     FM240800 14007KT P6SM FEW150 SCT250
     FM242000 29011KT P6SM SCT100=

USA.gov is the U.S. government's official web portal to all federal, state and local government web resources and services.